Time;durP1;ratioP1;P1;durP2;ratioP2;P2;SDS_P1;SDS_P2;PMS_P1;PMS_P2;Temp;Humidity;BMP_temperature;BMP_pressure;BME280_temperature;BME280_humidity;BME280_pressure;Samples;Min_cycle;Max_cycle;Signal;HPM_P1;HPM_P2
2021/01/28 00:02:16;;;;;;;18.60;10.93;;;;;;;1.05;86.39;95966.22;5094733;28;20048;-66
2021/01/28 00:04:42;;;;;;;19.38;10.60;;;;;;;1.11;86.44;95969.69;5093176;28;20055;-66
2021/01/28 00:07:08;;;;;;;17.15;10.55;;;;;;;1.16;86.28;95956.28;5092595;28;20068;-66
2021/01/28 00:09:34;;;;;;;17.48;9.80;;;;;;;1.23;86.02;95956.81;5099665;28;20072;-66
2021/01/28 00:12:00;;;;;;;16.77;9.95;;;;;;;1.17;85.97;95956.00;5113019;28;20558;-66
2021/01/28 00:14:26;;;;;;;17.67;10.27;;;;;;;1.25;85.87;95957.34;5112890;28;20036;-66
2021/01/28 00:16:52;;;;;;;16.83;10.27;;;;;;;1.30;85.52;95952.81;5112970;28;20052;-66
2021/01/28 00:19:19;;;;;;;15.90;10.57;;;;;;;1.24;85.54;95953.06;5112988;28;20055;-66
2021/01/28 00:21:45;;;;;;;18.23;10.35;;;;;;;1.24;85.67;95953.88;5112927;28;20070;-66
2021/01/28 00:24:11;;;;;;;16.90;9.85;;;;;;;1.34;85.72;95953.06;5112930;28;20622;-66
2021/01/28 00:26:38;;;;;;;15.43;9.45;;;;;;;1.44;85.12;95946.88;5113059;28;20401;-66
2021/01/28 00:29:04;;;;;;;15.50;9.93;;;;;;;1.26;85.57;95946.38;5112522;28;20521;-66
2021/01/28 00:31:30;;;;;;;17.15;9.60;;;;;;;1.24;85.78;95948.50;5100003;28;20044;-66
2021/01/28 00:33:56;;;;;;;15.73;9.68;;;;;;;1.22;85.94;95945.28;5111587;28;20078;-66
2021/01/28 00:36:23;;;;;;;15.77;9.85;;;;;;;1.24;85.97;95945.00;5112389;28;20040;-66
2021/01/28 00:38:49;;;;;;;17.38;9.45;;;;;;;1.28;85.85;95944.22;5112467;28;20048;-66
2021/01/28 00:41:15;;;;;;;16.50;9.43;;;;;;;1.28;85.89;95944.22;5112080;28;20054;-66
2021/01/28 00:43:41;;;;;;;14.68;9.60;;;;;;;1.30;85.69;95941.25;5112702;28;20067;-66
2021/01/28 00:46:07;;;;;;;16.77;10.13;;;;;;;1.24;85.97;95932.41;5111045;28;20486;-67
2021/01/28 00:48:34;;;;;;;15.73;9.43;;;;;;;1.22;86.08;95929.19;5112553;28;20512;-66
2021/01/28 00:51:02;;;;;;;16.67;10.27;;;;;;;1.17;86.34;95928.41;5112488;28;20048;-66
2021/01/28 00:53:29;;;;;;;16.63;10.20;;;;;;;1.16;86.43;95932.97;5112283;28;20039;-66
2021/01/28 00:55:55;;;;;;;18.30;11.13;;;;;;;1.16;86.42;95929.47;5112437;28;20045;-66
2021/01/28 00:58:24;;;;;;;16.70;10.35;;;;;;;1.17;86.45;95929.19;5112023;28;20051;-66
2021/01/28 01:00:50;;;;;;;17.67;9.85;;;;;;;1.23;86.11;95925.44;5104998;28;20040;-66
2021/01/28 01:03:18;;;;;;;17.98;9.85;;;;;;;1.22;86.06;95929.19;5105012;28;20062;-66
2021/01/28 01:05:45;;;;;;;16.13;9.70;;;;;;;1.19;86.32;95928.91;5112226;28;20494;-66
2021/01/28 01:08:15;;;;;;;14.73;9.32;;;;;;;1.23;86.21;95933.47;5111931;28;20039;-66
2021/01/28 01:10:45;;;;;;;16.55;10.13;;;;;;;1.21;86.14;95932.97;5111902;28;20081;-66
2021/01/28 01:13:14;;;;;;;16.52;9.95;;;;;;;1.23;85.98;95936.16;5111546;28;20047;-66
2021/01/28 01:15:40;;;;;;;15.73;8.98;;;;;;;1.26;85.90;95935.63;5111780;28;20044;-66
2021/01/28 01:18:07;;;;;;;15.93;9.75;;;;;;;1.26;85.90;95930.28;5111719;28;20082;-66
2021/01/28 01:20:33;;;;;;;15.23;9.20;;;;;;;1.33;85.62;95937.25;5112026;28;20055;-66
2021/01/28 01:22:59;;;;;;;15.13;9.38;;;;;;;1.40;85.44;95937.75;5111925;28;20067;-66
2021/01/28 01:25:25;;;;;;;14.90;9.13;;;;;;;1.40;85.33;95932.41;5111362;28;20051;-66
2021/01/28 01:27:52;;;;;;;15.50;9.07;;;;;;;1.35;85.40;95927.03;5111921;28;20126;-66
2021/01/28 01:30:21;;;;;;;14.68;9.18;;;;;;;1.30;85.43;95931.34;5108877;28;20043;-66
2021/01/28 01:32:47;;;;;;;14.57;8.38;;;;;;;1.45;85.18;95927.03;5100090;28;20040;-66
2021/01/28 01:35:14;;;;;;;16.40;8.80;;;;;;;1.54;84.57;95930.78;5111298;28;20536;-66
2021/01/28 01:37:40;;;;;;;13.88;8.60;;;;;;;1.54;84.39;95936.16;5112049;28;20058;-66
2021/01/28 01:40:09;;;;;;;14.38;8.60;;;;;;;1.54;84.39;95936.16;5110010;28;20044;-67
2021/01/28 01:42:35;;;;;;;14.48;8.25;;;;;;;1.48;84.45;95937.22;5111576;28;20103;-66
2021/01/28 01:45:06;;;;;;;15.02;8.82;;;;;;;1.58;84.34;95931.84;5110972;28;20545;-66
2021/01/28 01:47:38;;;;;;;13.15;7.82;;;;;;;1.66;83.96;95931.28;5111249;28;20089;-66
2021/01/28 01:50:07;;;;;;;13.35;8.10;;;;;;;1.50;84.33;95929.72;5110735;28;20050;-66
2021/01/28 01:52:35;;;;;;;14.10;8.50;;;;;;;1.48;84.67;95926.50;5110728;28;20121;-66
2021/01/28 01:55:03;;;;;;;16.27;9.45;;;;;;;1.45;84.77;95935.06;5110845;28;20494;-67
2021/01/28 01:57:33;;;;;;;15.77;8.95;;;;;;;1.53;84.61;95929.19;5110074;28;20072;-66
2021/01/28 02:00:06;;;;;;;14.98;8.70;;;;;;;1.58;84.39;95923.81;5111587;28;20047;-66
2021/01/28 02:02:35;;;;;;;14.57;8.57;;;;;;;1.65;84.08;95918.16;5090892;28;20040;-66
2021/01/28 02:05:09;;;;;;;14.20;8.77;;;;;;;1.49;84.45;95912.00;5090266;28;20052;-66
2021/01/28 02:07:36;;;;;;;13.38;8.48;;;;;;;1.49;84.49;95922.72;5090292;28;20098;-66
2021/01/28 02:10:04;;;;;;;14.05;8.63;;;;;;;1.54;84.54;95914.69;5101177;28;20516;-67
2021/01/28 02:12:30;;;;;;;14.05;8.77;;;;;;;1.48;84.60;95918.44;5111504;28;20050;-66
2021/01/28 02:14:56;;;;;;;15.05;9.40;;;;;;;1.46;84.76;95912.53;5111161;28;20040;-66
2021/01/28 02:17:25;;;;;;;14.68;8.77;;;;;;;1.53;84.63;95910.41;5110814;28;20172;-66
2021/01/28 02:20:13;;;;;;;14.77;9.15;;;;;;;1.42;84.71;95908.81;5111526;28;20108;-66
2021/01/28 02:22:47;;;;;;;15.88;9.52;;;;;;;1.44;84.82;95904.75;5111277;28;20040;-66
2021/01/28 02:25:20;;;;;;;16.40;8.85;;;;;;;1.41;85.18;95893.75;5111110;28;20052;-66
2021/01/28 02:27:46;;;;;;;16.42;9.90;;;;;;;1.44;85.19;95899.41;5111082;28;20043;-66
2021/01/28 02:30:14;;;;;;;16.83;10.15;;;;;;;1.37;85.11;95903.44;5108917;28;20055;-66
2021/01/28 02:32:40;;;;;;;15.65;9.35;;;;;;;1.35;85.34;95894.84;5091844;28;20047;-66
2021/01/28 02:35:08;;;;;;;17.52;10.18;;;;;;;1.41;85.27;95883.03;5090378;28;20131;-66
2021/01/28 02:37:35;;;;;;;14.15;8.30;;;;;;;1.49;85.05;95888.66;5090792;28;20040;-66
2021/01/28 02:40:01;;;;;;;16.00;9.55;;;;;;;1.59;84.72;95887.03;5101319;28;20045;-66
2021/01/28 02:42:31;;;;;;;15.07;9.07;;;;;;;1.55;84.53;95894.81;5110869;28;20046;-66
2021/01/28 02:44:57;;;;;;;15.60;9.30;;;;;;;1.67;84.52;95891.81;5111265;28;20044;-66
2021/01/28 02:47:23;;;;;;;14.75;8.80;;;;;;;1.71;84.08;95882.97;5110584;28;20044;-66
2021/01/28 02:49:49;;;;;;;14.10;7.97;;;;;;;1.74;83.92;95874.38;5111099;28;20040;-65
2021/01/28 02:52:15;;;;;;;14.30;8.05;;;;;;;1.74;83.62;95874.38;5110482;28;20061;-66
2021/01/28 02:54:44;;;;;;;14.18;8.40;;;;;;;1.69;83.88;95879.75;5111151;28;20043;-66
2021/01/28 02:57:10;;;;;;;14.57;8.23;;;;;;;1.60;84.52;95878.69;5110533;28;20047;-66
2021/01/28 02:59:37;;;;;;;12.88;7.60;;;;;;;1.61;84.65;95883.00;5111076;28;20040;-66
2021/01/28 03:02:07;;;;;;;13.02;8.00;;;;;;;1.55;84.77;95884.06;5094082;28;20040;-67
2021/01/28 03:04:33;;;;;;;12.90;7.82;;;;;;;1.61;84.79;95882.19;5090685;28;20519;-66
2021/01/28 03:06:59;;;;;;;12.88;7.47;;;;;;;1.64;84.62;95877.09;5090531;28;20048;-66
2021/01/28 03:09:25;;;;;;;14.93;8.25;;;;;;;1.64;84.50;95879.78;5097179;28;20050;-66
2021/01/28 03:11:51;;;;;;;13.25;7.88;;;;;;;1.69;84.45;95877.06;5114697;28;20056;-66
2021/01/28 03:14:17;;;;;;;11.73;7.15;;;;;;;1.70;84.36;95875.19;5113875;28;20044;-66
2021/01/28 03:16:44;;;;;;;12.02;7.00;;;;;;;1.76;84.11;95866.03;5114612;28;20059;-66
2021/01/28 03:19:10;;;;;;;12.70;7.32;;;;;;;1.71;84.19;95864.16;5114190;28;20120;-66
2021/01/28 03:21:36;;;;;;;12.60;7.50;;;;;;;1.71;84.12;95866.84;5114690;28;20069;-66
2021/01/28 03:24:03;;;;;;;11.27;6.93;;;;;;;1.71;84.34;95853.44;5114158;28;20079;-66
2021/01/28 03:26:29;;;;;;;12.90;7.05;;;;;;;1.74;84.14;95852.91;5114358;28;20089;-66
2021/01/28 03:28:55;;;;;;;11.98;7.18;;;;;;;1.69;84.41;95852.91;5114415;28;20446;-66
2021/01/28 03:31:20;;;;;;;11.45;6.82;;;;;;;1.78;84.03;95851.28;5094027;27;20056;-66
2021/01/28 03:33:47;;;;;;;12.38;7.68;;;;;;;1.71;84.24;95849.94;5111725;28;20079;-66
2021/01/28 03:36:13;;;;;;;11.52;6.70;;;;;;;1.68;84.31;95845.94;5113933;28;20447;-66
2021/01/28 03:38:39;;;;;;;11.68;7.20;;;;;;;1.78;84.17;95843.22;5114141;28;20044;-66
2021/01/28 03:41:05;;;;;;;11.35;6.97;;;;;;;1.85;83.90;95840.25;5113650;28;20043;-66
2021/01/28 03:43:31;;;;;;;10.98;6.72;;;;;;;1.81;83.61;95837.28;5113737;28;20074;-66
2021/01/28 03:45:58;;;;;;;10.45;6.15;;;;;;;1.80;83.78;95827.63;5114303;28;20040;-66
2021/01/28 03:48:24;;;;;;;12.88;7.10;;;;;;;1.70;84.10;95833.03;5113709;28;20048;-66
2021/01/28 03:50:51;;;;;;;11.20;6.75;;;;;;;1.80;84.09;95830.31;5113840;28;20044;-66
2021/01/28 03:53:17;;;;;;;11.20;6.75;;;;;;;1.85;83.95;95820.66;5113401;28;20490;-66
2021/01/28 03:55:43;;;;;;;11.05;6.80;;;;;;;1.91;83.65;95823.03;5113928;28;20101;-66
2021/01/28 03:58:09;;;;;;;11.93;7.10;;;;;;;1.90;83.42;95826.00;5113504;28;20050;-66
2021/01/28 04:00:35;;;;;;;13.13;7.68;;;;;;;1.86;83.73;95819.56;5104441;28;20466;-66
2021/01/28 04:03:03;;;;;;;13.38;7.40;;;;;;;1.93;83.50;95825.44;5104391;28;20084;-67
2021/01/28 04:05:29;;;;;;;12.65;7.28;;;;;;;1.95;83.49;95818.72;5113813;28;20048;-66
2021/01/28 04:07:57;;;;;;;12.18;6.93;;;;;;;1.99;83.48;95816.28;5113645;28;20048;-66
2021/01/28 04:10:25;;;;;;;13.43;7.25;;;;;;;2.10;83.10;95809.78;5113229;28;20104;-66
2021/01/28 04:12:52;;;;;;;13.48;7.13;;;;;;;2.05;82.98;95799.06;5113509;28;20078;-66
2021/01/28 04:15:18;;;;;;;9.80;6.32;;;;;;;2.16;82.83;95803.28;5113010;28;20051;-66
2021/01/28 04:17:45;;;;;;;11.50;5.93;;;;;;;2.22;82.29;95794.13;5113691;28;20062;-66
2021/01/28 04:20:13;;;;;;;11.40;7.20;;;;;;;2.28;82.02;95790.31;5112583;28;20055;-66
2021/01/28 04:22:39;;;;;;;11.60;6.75;;;;;;;2.12;82.59;95794.19;5113671;28;20051;-66
2021/01/28 04:25:07;;;;;;;12.10;6.38;;;;;;;2.05;82.92;95791.00;5112690;28;20044;-66
2021/01/28 04:27:34;;;;;;;9.85;6.20;;;;;;;2.08;83.09;95779.69;5113348;28;20051;-66
2021/01/28 04:30:00;;;;;;;13.52;6.65;;;;;;;2.15;82.80;95777.53;5108583;28;20052;-67
2021/01/28 04:32:26;;;;;;;10.15;6.35;;;;;;;2.22;82.44;95769.16;5099007;28;20040;-66
2021/01/28 04:34:54;;;;;;;9.88;5.85;;;;;;;2.25;82.15;95769.41;5113058;28;20055;-66
2021/01/28 04:37:20;;;;;;;9.93;5.80;;;;;;;2.30;82.24;95761.31;5112789;28;20043;-66
2021/01/28 04:39:46;;;;;;;9.57;6.05;;;;;;;2.14;82.67;95754.44;5113029;28;20047;-66
2021/01/28 04:42:16;;;;;;;10.98;6.18;;;;;;;2.04;83.10;95752.63;5112589;28;20044;-66
2021/01/28 04:44:42;;;;;;;11.45;6.43;;;;;;;1.99;83.53;95751.84;5113032;28;20452;-66
2021/01/28 04:47:14;;;;;;;10.95;6.13;;;;;;;1.94;83.75;95754.56;5112524;28;20088;-66
2021/01/28 04:49:44;;;;;;;10.23;6.47;;;;;;;1.99;83.74;95751.84;5112787;28;20042;-66
2021/01/28 04:52:13;;;;;;;8.98;5.38;;;;;;;2.04;83.57;95749.13;5112563;28;20096;-66
2021/01/28 04:54:40;;;;;;;9.82;5.88;;;;;;;2.05;83.47;95745.34;5112932;28;20044;-66
2021/01/28 04:57:11;;;;;;;8.93;5.70;;;;;;;1.98;83.69;95731.41;5112324;28;20043;-66
2021/01/28 04:59:42;;;;;;;9.90;6.05;;;;;;;2.13;83.28;95728.63;5111455;28;20040;-66
2021/01/28 05:02:14;;;;;;;9.02;5.65;;;;;;;2.20;82.94;95720.28;5095605;28;20047;-66
2021/01/28 05:04:43;;;;;;;8.95;5.40;;;;;;;2.18;83.06;95709.78;5112672;28;20068;-66
2021/01/28 05:07:12;;;;;;;9.25;5.55;;;;;;;2.17;83.13;95716.25;5112276;28;20071;-67
2021/01/28 05:09:38;;;;;;;8.55;5.53;;;;;;;2.20;82.93;95702.28;5112530;28;20096;-66
2021/01/28 05:12:05;;;;;;;8.60;5.25;;;;;;;2.26;82.90;95705.72;5112104;28;20662;-66
2021/01/28 05:14:33;;;;;;;7.75;4.97;;;;;;;2.35;82.36;95698.69;5112091;28;20039;-66
2021/01/28 05:17:02;;;;;;;7.35;5.00;;;;;;;2.46;81.94;95688.63;5112360;28;20100;-66
2021/01/28 05:19:45;;;;;;;7.07;4.80;;;;;;;2.53;81.80;95667.59;5112246;28;20046;-66
2021/01/28 05:22:19;;;;;;;7.63;5.10;;;;;;;2.58;81.56;95676.41;5111848;28;20047;-67
2021/01/28 05:24:48;;;;;;;6.53;4.57;;;;;;;2.64;81.30;95663.72;5112334;28;20031;-66
2021/01/28 05:27:19;;;;;;;7.65;4.45;;;;;;;2.69;81.21;95660.97;5111524;28;20067;-66
2021/01/28 05:29:47;;;;;;;6.45;4.25;;;;;;;2.74;80.94;95660.94;5109472;28;20040;-66
2021/01/28 05:32:31;;;;;;;6.97;4.90;;;;;;;2.76;80.66;95663.31;5095061;28;20043;-66
2021/01/28 05:35:16;;;;;;;6.90;4.53;;;;;;;2.68;81.38;95670.13;5112029;28;20071;-66
2021/01/28 05:37:43;;;;;;;7.00;4.63;;;;;;;2.72;80.79;95660.44;5111733;28;20070;-66
2021/01/28 05:40:12;;;;;;;7.90;5.03;;;;;;;2.76;80.72;95661.44;5111338;28;20054;-67
2021/01/28 05:42:41;;;;;;;8.13;4.65;;;;;;;2.79;80.70;95650.13;5111809;28;20538;-66
2021/01/28 05:45:26;;;;;;;6.10;4.20;;;;;;;2.83;80.62;95650.38;5111265;28;20075;-67
2021/01/28 05:47:53;;;;;;;7.20;4.85;;;;;;;2.84;80.62;95644.69;5111888;28;20043;-66
2021/01/28 05:50:26;;;;;;;9.85;4.43;;;;;;;2.82;80.89;95638.81;5111550;28;20039;-66
2021/01/28 05:53:08;;;;;;;8.18;3.80;;;;;;;2.84;80.78;95644.69;5111875;28;20047;-66
2021/01/28 05:55:34;;;;;;;5.93;4.22;;;;;;;2.83;80.75;95635.03;5111620;28;20031;-66
2021/01/28 05:58:04;;;;;;;9.77;4.90;;;;;;;2.84;80.76;95636.63;5111338;28;20044;-67
2021/01/28 06:00:38;;;;;;;7.70;4.40;;;;;;;2.87;80.53;95625.31;5102457;28;20089;-66
2021/01/28 06:03:26;;;;;;;9.43;6.32;;;;;;;2.88;80.54;95629.59;5102107;28;20493;-67
2021/01/28 06:06:03;;;;;;;17.25;7.80;;;;;;;2.90;80.47;95623.13;5108443;28;20073;-66
2021/01/28 06:09:12;;;;;;;6.53;4.40;;;;;;;2.90;80.51;95629.31;5111211;28;20370;-66
2021/01/28 06:12:11;;;;;;;7.55;4.00;;;;;;;2.93;80.65;95636.00;5008680;28;20041;-66
2021/01/28 06:15:08;;;;;;;6.85;4.10;;;;;;;2.93;80.52;95633.31;5008516;28;20046;-66
2021/01/28 06:17:51;;;;;;;9.00;4.13;;;;;;;2.95;80.41;95636.50;5080925;28;20097;-66
2021/01/28 06:20:33;;;;;;;6.60;3.93;;;;;;;2.96;80.67;95632.72;5090687;28;20406;-66
2021/01/28 06:23:29;;;;;;;6.40;4.22;;;;;;;2.99;80.44;95626.78;5091135;28;20286;-67
2021/01/28 06:26:23;;;;;;;6.95;4.30;;;;;;;2.99;80.27;95618.72;5090812;28;20036;-66
2021/01/28 06:29:13;;;;;;;;;;;;;;;2.95;80.36;95618.47;5069504;28;20037;-67
2021/01/28 06:31:52;;;;;;;6.30;4.32;;;;;;;2.93;80.31;95612.59;5070764;28;19920;-66
2021/01/28 06:34:33;;;;;;;7.47;4.70;;;;;;;2.96;80.47;95595.88;5070314;28;20044;-67
2021/01/28 06:37:17;;;;;;;7.88;5.00;;;;;;;2.97;80.51;95596.66;5070657;28;20052;-66
2021/01/28 06:39:45;;;;;;;;;;;;;;;3.00;80.36;95596.09;5078711;28;20523;-67
2021/01/28 06:42:22;;;;;;;6.82;4.45;;;;;;;3.00;80.58;95596.09;5090222;28;19928;-67
2021/01/28 06:44:55;;;;;;;7.68;4.65;;;;;;;2.98;80.62;95587.53;5094727;28;20051;-66
2021/01/28 06:47:24;;;;;;;;;;;;;;;3.01;80.47;95584.25;5094875;28;20044;-67
2021/01/28 06:49:59;;;;;;;6.78;4.55;;;;;;;2.98;80.40;95592.91;5094812;28;19920;-67
2021/01/28 06:52:47;;;;;;;6.40;4.45;;;;;;;2.99;80.77;95587.25;5094401;28;20075;-67
2021/01/28 06:55:30;;;;;;;8.65;4.50;;;;;;;2.99;80.80;95583.75;5094229;28;20056;-66
2021/01/28 06:58:09;;;;;;;8.15;4.25;;;;;;;2.93;80.84;95587.59;5094778;28;20044;-66
2021/01/28 07:00:43;;;;;;;6.30;4.25;;;;;;;2.97;80.86;95583.22;5084970;28;20048;-67
2021/01/28 07:03:21;;;;;;;6.78;4.13;;;;;;;2.99;80.90;95578.38;5086297;28;20506;-67
2021/01/28 07:05:59;;;;;;;7.75;4.40;;;;;;;3.05;80.91;95577.22;5094338;28;20101;-66
2021/01/28 07:08:42;;;;;;;5.93;3.65;;;;;;;3.07;80.47;95583.09;5094012;28;20044;-67
2021/01/28 07:11:21;;;;;;;6.50;3.95;;;;;;;3.04;80.65;95579.09;5093875;28;20052;-66
2021/01/28 07:13:48;;;;;;;8.70;4.18;;;;;;;3.06;80.93;95574.22;5094318;28;20055;-67
2021/01/28 07:16:20;;;;;;;5.60;3.97;;;;;;;3.10;80.70;95564.50;5093746;28;20052;-67
2021/01/28 07:18:50;;;;;;;6.25;3.65;;;;;;;3.14;80.64;95572.81;5094387;28;20047;-67
2021/01/28 07:21:29;;;;;;;6.30;3.70;;;;;;;3.19;80.49;95567.34;5093738;28;20064;-67
2021/01/28 07:24:06;;;;;;;6.22;4.13;;;;;;;3.22;80.24;95561.38;5094298;28;20044;-67
2021/01/28 07:26:47;;;;;;;5.50;3.55;;;;;;;3.25;79.90;95557.31;5096402;28;20402;-66
2021/01/28 07:29:35;;;;;;;7.80;4.30;;;;;;;3.31;79.99;95554.25;5113328;28;20093;-70
2021/01/28 07:32:07;;;;;;;5.25;3.35;;;;;;;3.33;79.81;95552.06;5106037;28;20437;-70
2021/01/28 07:34:33;;;;;;;6.25;4.07;;;;;;;3.33;79.61;95541.31;5095250;28;20457;-70
2021/01/28 07:37:24;;;;;;;7.50;4.15;;;;;;;3.31;79.73;95538.13;5110813;28;20099;-70
2021/01/28 07:39:51;;;;;;;8.68;3.78;;;;;;;3.27;80.00;95529.00;5110562;28;20380;-70
2021/01/28 07:42:31;;;;;;;6.93;3.92;;;;;;;3.26;80.37;95527.41;5110282;28;20056;-70
2021/01/28 07:44:58;;;;;;;6.38;4.15;;;;;;;3.26;80.32;95529.31;5090111;28;20055;-71
2021/01/28 07:47:49;;;;;;;8.45;4.25;;;;;;;3.30;80.51;95530.34;5098394;28;20048;-70
2021/01/28 07:50:35;;;;;;;5.05;3.53;;;;;;;3.32;80.79;95528.16;5110081;28;20048;-71
2021/01/28 07:53:49;;;;;;;6.90;4.05;;;;;;;3.32;80.81;95512.78;5109828;28;20052;-71
2021/01/28 07:56:47;;;;;;;7.80;4.07;;;;;;;3.28;80.87;95522.53;5101769;28;20048;-70
2021/01/28 07:59:21;;;;;;;8.90;4.32;;;;;;;3.25;81.36;95525.81;5109839;28;20517;-70
2021/01/28 08:01:50;;;;;;;7.90;4.15;;;;;;;3.22;81.72;95518.31;5092121;28;20055;-71
2021/01/28 08:04:27;;;;;;;8.48;4.07;;;;;;;3.21;82.07;95508.66;5112026;28;20051;-71
2021/01/28 08:06:55;;;;;;;9.85;4.50;;;;;;;3.21;82.15;95508.66;5114706;28;20051;-71
2021/01/28 08:09:21;;;;;;;7.70;4.18;;;;;;;3.19;82.08;95513.53;5112617;28;20480;-71
2021/01/28 08:11:50;;;;;;;7.45;3.50;;;;;;;3.16;82.72;95508.75;5113161;28;20088;-71
2021/01/28 08:14:20;;;;;;;8.13;3.90;;;;;;;3.15;83.16;95507.13;5112846;28;20054;-71
2021/01/28 08:16:50;;;;;;;7.97;4.18;;;;;;;3.11;83.25;95495.34;5113177;28;20050;-71
2021/01/28 08:19:21;;;;;;;8.70;4.75;;;;;;;3.10;83.66;95499.94;5112936;28;20055;-71
2021/01/28 08:21:47;;;;;;;12.23;5.18;;;;;;;3.09;83.79;95497.56;5112881;28;20096;-70
2021/01/28 08:24:20;;;;;;;11.07;4.85;;;;;;;3.08;84.10;95486.00;5112614;28;20047;-71
2021/01/28 08:26:46;;;;;;;7.25;4.35;;;;;;;3.10;84.24;95491.06;5113277;28;20481;-71
2021/01/28 08:29:15;;;;;;;8.68;4.30;;;;;;;3.09;84.47;95476.84;5112728;28;20051;-71
2021/01/28 08:31:44;;;;;;;9.70;4.78;;;;;;;3.08;84.61;95474.41;5085679;28;20040;-71
2021/01/28 08:34:15;;;;;;;8.70;4.30;;;;;;;3.08;84.89;95474.41;5091557;28;20044;-71
2021/01/28 08:36:45;;;;;;;5.32;3.55;;;;;;;3.05;84.79;95470.44;5092618;28;20051;-72
2021/01/28 08:39:14;;;;;;;5.93;3.90;;;;;;;3.03;84.83;95463.75;5095672;28;20180;-71
2021/01/28 08:41:41;;;;;;;6.25;3.85;;;;;;;3.01;84.90;95455.16;5112764;28;20035;-71
2021/01/28 08:44:11;;;;;;;7.68;5.25;;;;;;;3.01;85.21;95447.09;5112640;28;20510;-70
2021/01/28 08:46:40;;;;;;;7.32;3.95;;;;;;;3.02;84.95;95437.94;5112557;28;20073;-71
2021/01/28 08:49:10;;;;;;;5.78;3.70;;;;;;;3.04;85.32;95443.84;5112651;28;20486;-71
2021/01/28 08:51:39;;;;;;;8.52;4.40;;;;;;;3.12;85.25;95432.41;5112706;28;20044;-70
2021/01/28 08:54:13;;;;;;;7.88;4.80;;;;;;;3.13;84.92;95423.22;5112397;28;20048;-71
2021/01/28 08:56:40;;;;;;;;;;;;;;;3.14;84.83;95422.16;5113205;28;20043;-71
2021/01/28 08:59:10;;;;;;;7.47;4.72;;;;;;;3.11;84.99;95420.03;5111946;28;19919;-72
2021/01/28 09:01:42;;;;;;;7.75;4.15;;;;;;;3.08;84.82;95415.22;5092075;28;20043;-72
2021/01/28 09:04:13;;;;;;;7.43;4.40;;;;;;;3.07;85.05;95416.34;5091880;28;20055;-71
2021/01/28 09:06:41;;;;;;;7.90;5.13;;;;;;;3.05;84.73;95407.78;5090918;28;20278;-71
2021/01/28 09:09:17;;;;;;;7.13;5.05;;;;;;;3.09;85.03;95395.34;5094651;28;20437;-72
2021/01/28 09:11:43;;;;;;;9.27;5.05;;;;;;;3.11;85.15;95390.44;5112301;28;20054;-71
2021/01/28 09:14:19;;;;;;;10.15;5.07;;;;;;;3.16;85.05;95395.75;5111491;28;20047;-71
2021/01/28 09:16:53;;;;;;;10.75;5.47;;;;;;;3.15;85.04;95399.53;5112516;28;20039;-71
2021/01/28 09:19:21;;;;;;;10.02;5.22;;;;;;;3.12;84.80;95389.34;5111738;28;20048;-71
2021/01/28 09:21:52;;;;;;;12.15;5.93;;;;;;;3.06;84.91;95385.16;5112170;28;20054;-72
2021/01/28 09:24:24;;;;;;;9.95;5.63;;;;;;;3.06;84.77;95380.56;5111777;28;20050;-72
2021/01/28 09:27:16;;;;;;;8.73;5.40;;;;;;;3.07;85.04;95387.53;5112297;28;20051;-72
2021/01/28 09:29:53;;;;;;;12.60;5.45;;;;;;;3.08;85.07;95378.41;5115955;27;20865;-71
2021/01/28 09:32:32;;;;;;;10.43;5.75;;;;;;;3.09;84.93;95371.94;5108468;27;20040;-71
2021/01/28 09:35:12;;;;;;;10.25;5.90;;;;;;;3.11;85.04;95387.75;5108403;27;20044;-71
2021/01/28 09:37:39;;;;;;;10.80;6.13;;;;;;;3.11;85.04;95393.94;5108743;27;20044;-71
2021/01/28 09:40:18;;;;;;;11.38;5.90;;;;;;;3.11;84.85;95398.53;5119241;27;20058;-70
2021/01/28 09:42:44;;;;;;;9.48;5.78;;;;;;;3.09;84.84;95384.59;5129104;27;20070;-72
2021/01/28 09:45:19;;;;;;;9.50;5.68;;;;;;;3.12;84.91;95389.34;5128165;27;20493;-72
2021/01/28 09:47:50;;;;;;;10.77;5.88;;;;;;;3.08;85.07;95382.97;5128746;27;20043;-72
2021/01/28 09:50:16;;;;;;;9.25;5.93;;;;;;;2.93;85.19;95372.47;5128454;27;20044;-72
2021/01/28 09:52:44;;;;;;;8.13;5.22;;;;;;;2.92;85.45;95368.16;5128576;27;20161;-72
2021/01/28 09:55:12;;;;;;;12.38;6.10;;;;;;;2.99;85.61;95353.25;5128392;27;20050;-71
2021/01/28 09:57:39;;;;;;;11.43;6.32;;;;;;;2.97;85.67;95354.63;5128604;27;20059;-71
2021/01/28 10:00:07;;;;;;;10.32;5.85;;;;;;;2.96;85.97;95348.47;5120186;27;20406;-72
2021/01/28 10:02:38;;;;;;;11.05;5.63;;;;;;;2.98;86.01;95342.81;5108164;28;20046;-72
2021/01/28 10:05:06;;;;;;;10.45;5.85;;;;;;;3.02;86.08;95335.72;5107913;28;20052;-71
2021/01/28 10:07:32;;;;;;;8.55;5.60;;;;;;;3.05;85.86;95330.56;5106663;28;20044;-71
2021/01/28 10:09:58;;;;;;;10.18;5.45;;;;;;;3.09;85.72;95320.03;5108333;28;20071;-71
2021/01/28 10:12:27;;;;;;;8.88;5.05;;;;;;;3.05;85.90;95317.13;5107191;28;20406;-72
2021/01/28 10:14:53;;;;;;;10.02;5.50;;;;;;;3.00;85.84;95319.09;5108137;28;20040;-71
2021/01/28 10:17:19;;;;;;;9.35;5.25;;;;;;;3.01;86.08;95312.63;5106080;28;20073;-71
2021/01/28 10:19:46;;;;;;;8.75;5.45;;;;;;;3.01;86.12;95304.56;5107892;28;20062;-71
2021/01/28 10:22:15;;;;;;;9.93;5.38;;;;;;;3.08;86.26;95304.97;5107327;28;20056;-71
2021/01/28 10:24:41;;;;;;;7.55;5.10;;;;;;;3.10;86.41;95283.97;5107920;28;20067;-71
2021/01/28 10:27:08;;;;;;;11.52;5.53;;;;;;;3.16;86.32;95281.97;5107265;28;20406;-71
2021/01/28 10:29:34;;;;;;;9.43;5.40;;;;;;;3.17;86.28;95268.22;5110006;28;20054;-71
2021/01/28 10:32:00;;;;;;;9.80;5.68;;;;;;;3.17;86.70;95265.53;5107468;28;20047;-72
2021/01/28 10:34:26;;;;;;;8.30;4.80;;;;;;;3.23;86.45;95256.25;5107376;28;20540;-71
2021/01/28 10:36:53;;;;;;;6.85;4.10;;;;;;;3.28;86.80;95253.47;5106947;28;20044;-71
2021/01/28 10:39:19;;;;;;;6.72;3.63;;;;;;;3.31;87.03;95239.44;5107979;28;20048;-71
2021/01/28 10:41:47;;;;;;;5.78;3.20;;;;;;;3.37;87.00;95230.16;5113429;28;20131;-71
2021/01/28 10:44:13;;;;;;;5.18;2.55;;;;;;;3.41;87.00;95230.38;5112888;28;20044;-71
2021/01/28 10:46:41;;;;;;;5.80;1.75;;;;;;;3.45;87.43;95227.88;5113234;28;20127;-71
2021/01/28 10:49:07;;;;;;;4.25;1.83;;;;;;;3.52;87.48;95225.59;5113578;28;20142;-71
2021/01/28 10:51:32;;;;;;;2.65;1.48;;;;;;;3.53;87.52;95219.09;5113875;28;20054;-72
2021/01/28 10:53:59;;;;;;;2.13;1.38;;;;;;;3.55;87.87;95209.63;5114166;27;20040;-72
2021/01/28 10:56:25;;;;;;;5.50;1.40;;;;;;;3.61;87.88;95213.03;5113526;27;20052;-71
2021/01/28 10:58:52;;;;;;;1.90;1.02;;;;;;;3.60;87.96;95214.09;5113767;27;20050;-72
2021/01/28 11:01:18;;;;;;;1.73;1.25;;;;;;;3.66;88.16;95208.31;5096986;28;20096;-72
2021/01/28 11:03:44;;;;;;;2.35;1.38;;;;;;;3.76;87.95;95196.53;5090358;28;20093;-71
2021/01/28 11:06:10;;;;;;;3.15;1.40;;;;;;;3.76;87.55;95206.50;5090028;28;20051;-70
2021/01/28 11:08:36;;;;;;;2.00;1.25;;;;;;;3.76;87.65;95201.09;5090540;28;20048;-71
2021/01/28 11:11:03;;;;;;;2.78;1.20;;;;;;;3.75;87.75;95208.38;5108584;28;20096;-71
2021/01/28 11:13:30;;;;;;;4.72;1.40;;;;;;;3.71;87.62;95202.03;5110625;28;20047;-71
2021/01/28 11:15:56;;;;;;;3.75;1.42;;;;;;;3.53;88.07;95192.19;5110084;28;20073;-71
2021/01/28 11:18:22;;;;;;;1.67;1.10;;;;;;;3.54;88.29;95189.19;5109957;27;20043;-70
2021/01/28 11:20:48;;;;;;;2.70;1.40;;;;;;;3.46;88.66;95176.44;5102972;28;20044;-71
2021/01/28 11:23:15;;;;;;;3.08;1.38;;;;;;;3.59;88.42;95180.19;5089921;28;20052;-71
2021/01/28 11:25:41;;;;;;;4.75;1.63;;;;;;;3.52;88.51;95183.31;5090032;28;20534;-71
2021/01/28 11:28:08;;;;;;;5.20;1.17;;;;;;;3.48;88.79;95178.81;5089516;28;20055;-71
2021/01/28 11:30:35;;;;;;;5.53;1.30;;;;;;;3.48;88.85;95163.47;5091143;28;20109;-71
2021/01/28 11:33:02;;;;;;;5.43;1.35;;;;;;;3.51;88.76;95154.00;5088769;28;20552;-71
2021/01/28 11:35:31;;;;;;;2.83;1.35;;;;;;;3.48;88.81;95144.63;5088294;28;20517;-72
2021/01/28 11:37:57;;;;;;;3.28;1.15;;;;;;;3.45;89.03;95133.69;5089419;28;20139;-70
2021/01/28 11:40:28;;;;;;;2.92;1.33;;;;;;;3.49;89.16;95126.59;5100952;28;20152;-69
2021/01/28 11:42:55;;;;;;;3.35;1.73;;;;;;;3.59;89.17;95111.00;5089229;28;20052;-69
2021/01/28 11:45:26;;;;;;;2.92;1.33;;;;;;;3.70;88.92;95103.50;5089158;28;20208;-70
2021/01/28 11:47:52;;;;;;;2.30;1.20;;;;;;;3.75;88.59;95103.38;5088994;28;20546;-70
2021/01/28 11:50:19;;;;;;;2.40;1.45;;;;;;;3.74;88.41;95093.72;5091090;28;20478;-70
2021/01/28 11:52:46;;;;;;;7.85;2.03;;;;;;;3.73;88.55;95085.94;5091457;28;20048;-70
2021/01/28 11:55:15;;;;;;;2.28;1.30;;;;;;;3.73;88.46;95075.97;5092098;28;20443;-70